Time;durP1;ratioP1;P1;durP2;ratioP2;P2;SDS_P1;SDS_P2;PMS_P1;PMS_P2;Temp;Humidity;BMP_temperature;BMP_pressure;BME280_temperature;BME280_humidity;BME280_pressure;Samples;Min_cycle;Max_cycle;Signal;HPM_P1;HPM_P2
2023/02/25 00:00:55;;;;;;;17.30;10.85;;;4.10;99.90;;;;;;2077823;28;20017;-76
2023/02/25 00:01:55;;;;;;;16.83;11.10;;;4.00;99.90;;;;;;2075680;28;20200;-77
2023/02/25 00:02:57;;;;;;;15.50;10.57;;;4.00;99.90;;;;;;2083069;28;20087;-77
2023/02/25 00:03:58;;;;;;;16.40;10.98;;;4.00;99.90;;;;;;2101903;28;20131;-77
2023/02/25 00:05:05;;;;;;;16.05;10.73;;;4.00;99.90;;;;;;2101431;28;20024;-77
2023/02/25 00:06:08;;;;;;;16.48;11.18;;;4.00;99.90;;;;;;2090771;28;20116;-76
2023/02/25 00:07:09;;;;;;;15.07;10.45;;;4.00;99.90;;;;;;2081999;28;20080;-77
2023/02/25 00:08:10;;;;;;;16.30;10.90;;;4.00;99.90;;;;;;2081799;28;20470;-77
2023/02/25 00:09:10;;;;;;;15.95;10.02;;;4.00;99.90;;;;;;2079677;28;20500;-78
2023/02/25 00:10:13;;;;;;;16.00;10.50;;;3.90;99.90;;;;;;2074720;28;20028;-77
2023/02/25 00:11:16;;;;;;;15.75;10.50;;;3.90;99.90;;;;;;2078872;28;20507;-77
2023/02/25 00:12:16;;;;;;;15.88;10.70;;;3.80;99.90;;;;;;2078751;28;20433;-77
2023/02/25 00:13:17;;;;;;;15.57;10.85;;;3.80;99.90;;;;;;2080111;28;20112;-74
2023/02/25 00:14:17;;;;;;;16.15;10.98;;;3.80;99.90;;;;;;2077530;28;20037;-74
2023/02/25 00:15:18;;;;;;;16.25;10.95;;;3.70;99.90;;;;;;2077813;28;20033;-74
2023/02/25 00:16:20;;;;;;;16.20;11.18;;;3.70;99.90;;;;;;2082675;28;20031;-74
2023/02/25 00:17:21;;;;;;;17.13;10.98;;;3.70;99.90;;;;;;2100284;28;20028;-74
2023/02/25 00:18:25;;;;;;;15.82;10.57;;;3.70;99.90;;;;;;2090525;28;20032;-74
2023/02/25 00:19:26;;;;;;;15.10;10.52;;;3.70;99.90;;;;;;2080739;28;20042;-74
2023/02/25 00:20:27;;;;;;;16.02;11.38;;;3.70;99.90;;;;;;2081575;28;20447;-74
2023/02/25 00:21:28;;;;;;;14.93;10.88;;;3.70;99.90;;;;;;2077358;28;20400;-74
2023/02/25 00:22:28;;;;;;;15.40;10.70;;;3.70;99.90;;;;;;2077676;28;20276;-76
2023/02/25 00:23:29;;;;;;;16.40;11.13;;;3.70;99.90;;;;;;2080203;28;20404;-74
2023/02/25 00:24:29;;;;;;;15.73;10.85;;;3.70;99.90;;;;;;2082352;28;20086;-74
2023/02/25 00:25:30;;;;;;;16.95;11.57;;;3.70;99.90;;;;;;2081676;28;20108;-74
2023/02/25 00:26:31;;;;;;;16.95;11.45;;;3.70;99.90;;;;;;2081044;28;20551;-75
2023/02/25 00:27:31;;;;;;;16.60;11.40;;;3.70;99.90;;;;;;2075626;28;20125;-74
2023/02/25 00:28:33;;;;;;;15.75;10.80;;;3.70;99.90;;;;;;2078694;28;20143;-75
2023/02/25 00:29:33;;;;;;;15.30;11.13;;;3.70;99.90;;;;;;2083457;28;20029;-74
2023/02/25 00:30:37;;;;;;;17.33;11.68;;;3.70;99.90;;;;;;2080366;28;20032;-74
2023/02/25 00:31:38;;;;;;;16.70;11.63;;;3.70;99.90;;;;;;2075146;28;20087;-74
2023/02/25 00:32:39;;;;;;;16.52;11.55;;;3.70;99.90;;;;;;2093332;28;20078;-78
2023/02/25 00:33:40;;;;;;;16.92;11.32;;;3.70;99.90;;;;;;2096859;28;20315;-77
2023/02/25 00:34:41;;;;;;;17.48;11.35;;;3.70;99.90;;;;;;2069950;28;20386;-77
2023/02/25 00:35:43;;;;;;;16.13;11.95;;;3.70;99.90;;;;;;2079372;28;20054;-77
2023/02/25 00:36:43;;;;;;;18.25;12.75;;;3.70;99.90;;;;;;2101643;28;20484;-77
2023/02/25 00:37:44;;;;;;;17.45;12.05;;;3.80;99.90;;;;;;2096578;28;20483;-74
2023/02/25 00:38:49;;;;;;;16.00;11.65;;;3.80;99.90;;;;;;2084573;28;20434;-75
2023/02/25 00:39:49;;;;;;;16.92;12.00;;;3.80;99.90;;;;;;2085545;28;20036;-77
2023/02/25 00:40:50;;;;;;;17.13;12.35;;;3.80;99.90;;;;;;2095195;28;20040;-77
2023/02/25 00:41:51;;;;;;;18.25;12.25;;;3.80;99.90;;;;;;2093737;28;20036;-75
2023/02/25 00:42:52;;;;;;;17.85;12.70;;;3.80;99.90;;;;;;2084951;28;20028;-74
2023/02/25 00:43:56;;;;;;;19.30;12.20;;;3.80;99.90;;;;;;2076030;28;20068;-76
2023/02/25 00:44:56;;;;;;;19.60;12.13;;;3.80;99.90;;;;;;2074868;28;20037;-74
2023/02/25 00:45:57;;;;;;;16.70;11.77;;;3.80;99.90;;;;;;2081254;28;20036;-74
2023/02/25 00:46:58;;;;;;;19.52;12.82;;;3.80;99.90;;;;;;2085131;28;20055;-76
2023/02/25 00:47:59;;;;;;;17.48;12.65;;;3.80;99.90;;;;;;2082832;28;20135;-75
2023/02/25 00:49:00;;;;;;;19.95;12.95;;;3.80;99.90;;;;;;2094047;28;20028;-75
2023/02/25 00:50:02;;;;;;;17.90;12.38;;;3.80;99.90;;;;;;2085158;28;20096;-76
2023/02/25 00:51:11;;;;;;;20.30;13.00;;;3.80;99.90;;;;;;2068701;28;20108;-75
2023/02/25 00:52:11;;;;;;;19.33;12.45;;;3.80;99.90;;;;;;2082684;28;20373;-77
2023/02/25 00:53:12;;;;;;;17.70;12.75;;;3.80;99.90;;;;;;2086023;28;20020;-77
2023/02/25 00:54:12;;;;;;;22.65;13.82;;;3.80;99.90;;;;;;2081347;28;20484;-78
2023/02/25 00:55:13;;;;;;;22.30;13.40;;;3.80;99.90;;;;;;2077396;28;20033;-78
2023/02/25 00:56:16;;;;;;;21.70;13.30;;;3.80;99.90;;;;;;2069268;28;20052;-77
2023/02/25 00:57:16;;;;;;;20.10;13.13;;;3.80;99.90;;;;;;2077772;28;20029;-77
2023/02/25 00:58:17;;;;;;;21.13;13.00;;;3.80;99.90;;;;;;2083481;28;20043;-77
2023/02/25 00:59:17;;;;;;;19.80;13.05;;;3.80;99.90;;;;;;2073961;28;20036;-77
2023/02/25 01:00:18;;;;;;;21.63;13.63;;;3.80;99.90;;;;;;2094872;28;20024;-77
2023/02/25 01:01:32;;;;;;;20.95;13.32;;;3.90;99.90;;;;;;2086814;28;20032;-77
2023/02/25 01:02:32;;;;;;;22.20;13.35;;;3.90;99.90;;;;;;2071384;28;20076;-77
2023/02/25 01:03:33;;;;;;;21.55;13.70;;;3.80;99.90;;;;;;2086761;28;20047;-75
2023/02/25 01:04:33;;;;;;;23.88;13.45;;;3.90;99.90;;;;;;2088465;28;20024;-77
2023/02/25 01:05:40;;;;;;;21.65;13.88;;;3.90;99.90;;;;;;2076055;28;20129;-78
2023/02/25 01:06:40;;;;;;;23.42;13.30;;;3.90;99.90;;;;;;2074658;28;20061;-77
2023/02/25 01:07:44;;;;;;;22.48;12.88;;;3.90;99.90;;;;;;2070304;28;20185;-78
2023/02/25 01:08:44;;;;;;;21.90;12.65;;;3.90;99.90;;;;;;2075044;28;20057;-78
2023/02/25 01:09:45;;;;;;;21.75;13.75;;;3.90;99.90;;;;;;2099923;28;20545;-78
2023/02/25 01:10:47;;;;;;;23.20;13.95;;;3.90;99.90;;;;;;2084837;28;20067;-78
2023/02/25 01:11:48;;;;;;;22.13;13.40;;;4.00;99.90;;;;;;2084788;28;20033;-77
2023/02/25 01:12:49;;;;;;;23.02;13.13;;;3.90;99.90;;;;;;2081245;28;20028;-78
2023/02/25 01:13:50;;;;;;;23.45;12.77;;;4.00;99.90;;;;;;2079266;28;20022;-77
2023/02/25 01:14:54;;;;;;;19.85;12.10;;;3.90;99.90;;;;;;2085868;28;20063;-78
2023/02/25 01:15:55;;;;;;;23.27;13.60;;;3.90;99.90;;;;;;2078955;28;20057;-76
2023/02/25 01:16:59;;;;;;;24.23;13.40;;;3.90;99.90;;;;;;2092645;28;20028;-78
2023/02/25 01:18:00;;;;;;;24.67;12.68;;;4.00;99.90;;;;;;2078855;28;20130;-78
2023/02/25 01:19:04;;;;;;;23.77;12.77;;;4.00;99.90;;;;;;2065455;28;20505;-78
2023/02/25 01:20:10;;;;;;;24.08;13.15;;;4.00;99.90;;;;;;2075547;28;20351;-78
2023/02/25 01:21:16;;;;;;;20.33;12.35;;;4.00;99.90;;;;;;2092215;28;20085;-77
2023/02/25 01:22:17;;;;;;;22.77;12.80;;;4.00;99.90;;;;;;2085424;28;20071;-77
2023/02/25 01:23:17;;;;;;;23.50;12.68;;;4.00;99.90;;;;;;2083441;28;20025;-78
2023/02/25 01:24:20;;;;;;;19.38;11.52;;;4.10;99.90;;;;;;2086647;28;20767;-77
2023/02/25 01:25:21;;;;;;;20.25;11.07;;;4.10;99.90;;;;;;2082311;28;20128;-78
2023/02/25 01:26:22;;;;;;;21.52;12.32;;;4.00;99.90;;;;;;2086045;28;20040;-78
2023/02/25 01:27:22;;;;;;;20.73;11.50;;;4.10;99.90;;;;;;2079816;28;20296;-77
2023/02/25 01:28:23;;;;;;;20.83;11.60;;;4.10;99.90;;;;;;2087673;28;20079;-77
2023/02/25 01:29:31;;;;;;;18.92;11.30;;;4.10;99.90;;;;;;2076577;28;20029;-77
2023/02/25 01:30:35;;;;;;;18.10;10.57;;;4.10;99.90;;;;;;2077407;28;20040;-77
2023/02/25 01:31:36;;;;;;;19.15;10.18;;;4.20;99.90;;;;;;2082146;28;20124;-75
2023/02/25 01:32:37;;;;;;;19.30;9.77;;;4.20;99.90;;;;;;2091348;28;20112;-78
2023/02/25 01:33:37;;;;;;;15.85;9.85;;;4.20;99.90;;;;;;2081458;28;20055;-78
2023/02/25 01:34:39;;;;;;;19.65;9.77;;;4.20;99.90;;;;;;2080445;28;20499;-79
2023/02/25 01:35:41;;;;;;;18.52;9.23;;;4.20;99.90;;;;;;2079287;28;20205;-78
2023/02/25 01:36:43;;;;;;;17.30;9.38;;;4.20;99.90;;;;;;2087529;28;20118;-74
2023/02/25 01:37:45;;;;;;;15.85;9.38;;;4.20;99.90;;;;;;2084052;28;20025;-73
2023/02/25 01:38:46;;;;;;;16.85;9.27;;;4.30;99.90;;;;;;2077031;28;20451;-76
2023/02/25 01:39:46;;;;;;;16.30;9.27;;;4.30;99.90;;;;;;2079716;28;20180;-77
2023/02/25 01:40:47;;;;;;;17.67;9.35;;;4.30;99.90;;;;;;2073868;28;20034;-76
2023/02/25 01:41:49;;;;;;;19.02;9.30;;;4.30;99.90;;;;;;2089960;28;20041;-76
2023/02/25 01:42:50;;;;;;;15.48;8.98;;;4.30;99.90;;;;;;2087917;28;20059;-86
2023/02/25 01:44:09;;;;;;;17.52;9.43;;;4.30;99.90;;;;;;2091011;28;20479;-85
2023/02/25 01:45:23;;;;;;;18.63;9.43;;;4.20;99.90;;;;;;2078980;28;20086;-85
2023/02/25 01:46:23;;;;;;;18.17;9.65;;;4.30;99.90;;;;;;2075008;28;20029;-85
2023/02/25 01:47:34;;;;;;;18.75;9.80;;;4.30;99.90;;;;;;2066959;28;20030;-85
2023/02/25 01:48:39;;;;;;;19.20;9.82;;;4.30;99.90;;;;;;2073193;28;20128;-86
2023/02/25 01:49:45;;;;;;;20.08;9.38;;;4.30;99.90;;;;;;2084463;28;20037;-87
2023/02/25 01:50:56;;;;;;;19.35;9.25;;;4.20;99.90;;;;;;2092398;28;20801;-86
2023/02/25 01:52:14;;;;;;;18.02;9.43;;;4.20;99.90;;;;;;2083618;28;20021;-87
2023/02/25 01:53:20;;;;;;;17.23;9.65;;;4.20;99.90;;;;;;2076462;28;20111;-78
2023/02/25 01:54:20;;;;;;;18.02;9.52;;;4.20;99.90;;;;;;2079772;28;20021;-71
2023/02/25 01:55:21;;;;;;;17.65;9.60;;;4.10;99.90;;;;;;2078163;28;20025;-86
2023/02/25 01:56:25;;;;;;;19.45;10.02;;;4.20;99.90;;;;;;2079657;28;20029;-79
2023/02/25 01:57:26;;;;;;;16.27;9.10;;;4.20;99.90;;;;;;2086825;28;20051;-75
2023/02/25 01:58:28;;;;;;;21.65;9.43;;;4.20;99.90;;;;;;2090416;28;20488;-79
2023/02/25 01:59:29;;;;;;;18.35;8.25;;;4.10;99.90;;;;;;2076260;28;20044;-78
2023/02/25 02:00:31;;;;;;;20.35;8.57;;;4.20;99.90;;;;;;2079477;28;20033;-78
2023/02/25 02:01:35;;;;;;;19.50;9.15;;;4.20;99.90;;;;;;2078049;28;20029;-77
2023/02/25 02:02:36;;;;;;;18.15;8.82;;;4.20;99.90;;;;;;2076422;28;20029;-76
2023/02/25 02:03:40;;;;;;;20.83;8.63;;;4.20;99.90;;;;;;2078667;28;20025;-76
2023/02/25 02:04:42;;;;;;;19.50;8.90;;;4.20;99.90;;;;;;2075912;28;20028;-78
2023/02/25 02:06:18;;;;;;;15.43;8.38;;;4.20;99.90;;;;;;2079670;28;20110;-77
2023/02/25 02:07:23;;;;;;;16.77;8.27;;;4.20;99.90;;;;;;2075735;28;20387;-73
2023/02/25 02:08:25;;;;;;;19.95;8.48;;;4.20;99.90;;;;;;2076101;28;20061;-76
2023/02/25 02:09:30;;;;;;;19.75;8.57;;;4.20;99.90;;;;;;2076321;28;20052;-78
2023/02/25 02:10:30;;;;;;;18.52;8.40;;;4.20;99.90;;;;;;2076731;28;20071;-76
2023/02/25 02:11:32;;;;;;;16.02;8.23;;;4.20;99.90;;;;;;2082022;28;20033;-75
2023/02/25 02:12:38;;;;;;;14.27;8.02;;;4.20;99.90;;;;;;2067941;28;20041;-75
2023/02/25 02:13:43;;;;;;;14.95;7.90;;;4.20;99.90;;;;;;2063058;28;20029;-75
2023/02/25 02:14:44;;;;;;;18.33;7.72;;;4.20;99.90;;;;;;2069262;28;20022;-76
2023/02/25 02:16:33;;;;;;;17.25;7.50;;;4.20;99.90;;;;;;2075218;28;20033;-75
2023/02/25 02:17:58;;;;;;;16.88;7.53;;;4.20;99.90;;;;;;2073187;28;20641;-75
2023/02/25 02:19:32;;;;;;;18.30;7.65;;;4.30;99.90;;;;;;2077142;28;20043;-75
2023/02/25 02:20:55;;;;;;;14.95;6.93;;;4.20;99.90;;;;;;2077029;28;20444;-75
2023/02/25 02:22:11;;;;;;;18.02;7.47;;;4.30;99.90;;;;;;2077702;28;20035;-75
2023/02/25 02:23:23;;;;;;;16.10;7.20;;;4.30;99.90;;;;;;2077224;28;20047;-84
2023/02/25 02:24:39;;;;;;;17.20;6.93;;;4.30;99.90;;;;;;2075339;28;20021;-78
2023/02/25 02:26:24;;;;;;;16.25;6.95;;;4.30;99.90;;;;;;2082623;28;20037;-77
2023/02/25 02:27:35;;;;;;;17.02;6.90;;;4.30;99.90;;;;;;2089546;28;20062;-77
2023/02/25 02:29:03;;;;;;;15.43;7.20;;;4.30;99.90;;;;;;2089953;28;20054;-79
2023/02/25 02:30:30;;;;;;;14.65;6.35;;;4.30;99.90;;;;;;2081015;28;20308;-76
2023/02/25 02:31:42;;;;;;;17.40;6.97;;;4.30;99.90;;;;;;2080964;28;20071;-78
2023/02/25 02:33:29;;;;;;;16.10;6.72;;;4.30;99.90;;;;;;2084783;28;20164;-77
2023/02/25 02:35:17;;;;;;;17.40;6.90;;;4.30;99.90;;;;;;2089337;28;20088;-78
2023/02/25 02:36:26;;;;;;;19.13;6.68;;;4.20;99.90;;;;;;2064930;28;20018;-77
2023/02/25 02:37:48;;;;;;;14.20;6.15;;;4.30;99.90;;;;;;2084386;28;20041;-77
2023/02/25 02:39:24;;;;;;;14.80;6.40;;;4.20;99.90;;;;;;2082268;28;20116;-77
2023/02/25 02:40:35;;;;;;;17.30;6.20;;;4.20;99.90;;;;;;2073972;28;20021;-77
2023/02/25 02:41:37;;;;;;;;;;;4.20;99.90;;;;;;2080412;28;20547;-78
2023/02/25 02:43:01;;;;;;;19.88;6.30;;;4.20;99.90;;;;;;2085865;28;20429;-78
2023/02/25 02:44:15;;;;;;;15.63;5.57;;;4.20;99.90;;;;;;2080495;28;20224;-80
2023/02/25 02:45:33;;;;;;;13.73;5.93;;;4.20;99.90;;;;;;2073813;28;20030;-80
2023/02/25 02:46:50;;;;;;;14.98;5.65;;;4.20;99.90;;;;;;2080116;28;20166;-80
2023/02/25 02:47:56;;;;;;;20.15;6.18;;;4.20;99.90;;;;;;2070771;28;20026;-80
2023/02/25 02:49:08;;;;;;;15.73;6.10;;;4.20;99.90;;;;;;2092700;28;20025;-79
2023/02/25 02:50:28;;;;;;;14.05;6.18;;;4.20;99.90;;;;;;2082667;28;20484;-78
2023/02/25 02:51:34;;;;;;;14.45;5.28;;;4.20;99.90;;;;;;2090063;28;20078;-79
2023/02/25 02:52:40;;;;;;;17.85;5.82;;;4.20;99.90;;;;;;2100986;28;20051;-79
2023/02/25 02:53:48;;;;;;;13.50;5.50;;;4.10;99.90;;;;;;2086160;28;20091;-79
2023/02/25 02:55:03;;;;;;;16.48;5.25;;;4.10;99.90;;;;;;2075386;28;20033;-79
2023/02/25 02:56:07;;;;;;;14.30;5.28;;;4.10;99.90;;;;;;2079572;28;20017;-81
2023/02/25 02:57:10;;;;;;;12.38;5.07;;;4.10;99.90;;;;;;2095450;28;20357;-79
2023/02/25 02:58:33;;;;;;;14.38;5.53;;;4.10;99.90;;;;;;2099557;28;20027;-79
2023/02/25 02:59:41;;;;;;;16.00;5.10;;;4.10;99.90;;;;;;2078731;28;20124;-80
2023/02/25 03:00:46;;;;;;;13.82;4.80;;;4.10;99.90;;;;;;2077307;28;20028;-81
2023/02/25 03:01:57;;;;;;;16.77;5.13;;;4.10;99.90;;;;;;2082502;28;20052;-79
2023/02/25 03:03:06;;;;;;;14.15;5.07;;;4.10;99.90;;;;;;2080502;28;20142;-79
2023/02/25 03:04:12;;;;;;;18.27;5.22;;;4.10;99.90;;;;;;2087110;28;20474;-79
2023/02/25 03:05:16;;;;;;;12.68;4.40;;;4.10;99.90;;;;;;2088186;28;20111;-80
2023/02/25 03:06:22;;;;;;;16.20;4.82;;;4.00;99.90;;;;;;2098778;28;20416;-80
2023/02/25 03:07:22;;;;;;;14.50;4.70;;;4.00;99.90;;;;;;2090696;28;20095;-79
2023/02/25 03:08:28;;;;;;;12.35;4.55;;;4.00;99.90;;;;;;2080249;28;20112;-81
2023/02/25 03:09:35;;;;;;;13.82;4.57;;;4.00;99.90;;;;;;2090681;28;20349;-77
2023/02/25 03:10:36;;;;;;;15.52;5.15;;;4.00;99.90;;;;;;2077571;28;20056;-76
2023/02/25 03:11:37;;;;;;;12.50;4.40;;;4.10;99.90;;;;;;2062721;28;20038;-75
2023/02/25 03:12:37;;;;;;;13.52;4.72;;;4.00;99.90;;;;;;2076182;28;20139;-78
2023/02/25 03:13:40;;;;;;;12.85;4.30;;;4.00;99.90;;;;;;2086130;28;20419;-78
2023/02/25 03:14:41;;;;;;;13.18;4.40;;;4.00;99.90;;;;;;2093958;28;20371;-77
2023/02/25 03:15:42;;;;;;;13.93;4.93;;;4.00;99.90;;;;;;2074081;28;20041;-75
2023/02/25 03:17:01;;;;;;;19.10;4.85;;;4.00;99.90;;;;;;2068392;28;20112;-77
2023/02/25 03:18:10;;;;;;;10.35;4.03;;;4.00;99.90;;;;;;2087678;28;20590;-76
2023/02/25 03:19:16;;;;;;;14.43;4.30;;;4.00;99.90;;;;;;2099567;28;20425;-77
2023/02/25 03:20:29;;;;;;;13.50;4.18;;;4.00;99.90;;;;;;2080270;28;20108;-77
2023/02/25 03:21:38;;;;;;;11.63;4.30;;;3.90;99.90;;;;;;2094547;28;20582;-75
2023/02/25 03:22:44;;;;;;;8.30;3.97;;;3.90;99.90;;;;;;2097552;28;20699;-77
2023/02/25 03:23:47;;;;;;;14.60;4.32;;;3.90;99.90;;;;;;2076784;28;20116;-78
2023/02/25 03:24:53;;;;;;;11.95;3.85;;;3.90;99.90;;;;;;2077283;28;20492;-78
2023/02/25 03:26:20;;;;;;;10.70;4.00;;;3.90;99.90;;;;;;2077129;28;20025;-77
2023/02/25 03:27:35;;;;;;;13.23;4.00;;;3.90;99.90;;;;;;2089573;28;20032;-78
2023/02/25 03:28:37;;;;;;;10.70;4.10;;;3.90;99.90;;;;;;2081238;28;20032;-78
2023/02/25 03:29:38;;;;;;;12.63;4.15;;;3.90;99.90;;;;;;2085703;28;20037;-77
2023/02/25 03:30:47;;;;;;;11.13;4.22;;;3.90;99.90;;;;;;2084226;28;20037;-77
2023/02/25 03:32:11;;;;;;;10.82;4.40;;;3.90;99.90;;;;;;2079240;28;20064;-77
2023/02/25 03:33:48;;;;;;;12.52;4.07;;;3.90;99.90;;;;;;2079263;28;20115;-77
2023/02/25 03:34:56;;;;;;;15.20;4.18;;;3.90;99.90;;;;;;2075616;28;20029;-77
2023/02/25 03:35:58;;;;;;;12.75;4.15;;;3.90;99.90;;;;;;2080667;28;20063;-78
2023/02/25 03:37:13;;;;;;;11.25;3.78;;;3.90;99.90;;;;;;2082283;28;20048;-76
2023/02/25 03:38:19;;;;;;;8.38;4.25;;;3.90;99.90;;;;;;2074547;28;20056;-77
2023/02/25 03:39:26;;;;;;;13.38;3.97;;;3.90;99.90;;;;;;2081283;28;20271;-78
2023/02/25 03:40:28;;;;;;;12.50;4.32;;;3.90;99.90;;;;;;2082171;28;20149;-78
2023/02/25 03:41:34;;;;;;;13.00;4.05;;;3.90;99.90;;;;;;2075333;28;20030;-77
2023/02/25 03:42:37;;;;;;;11.02;4.10;;;3.90;99.90;;;;;;2082142;28;20040;-78
2023/02/25 03:43:42;;;;;;;13.77;4.28;;;3.90;99.90;;;;;;2091073;28;20040;-77
2023/02/25 03:44:48;;;;;;;8.80;3.97;;;3.90;99.90;;;;;;2073206;28;20044;-77
2023/02/25 03:45:49;;;;;;;14.35;4.05;;;3.90;99.90;;;;;;2078732;28;20025;-77
2023/02/25 03:46:50;;;;;;;11.10;4.03;;;3.90;99.90;;;;;;2080473;28;20507;-79
2023/02/25 03:47:51;;;;;;;14.65;4.60;;;3.90;99.90;;;;;;2077427;28;20041;-77
2023/02/25 03:48:53;;;;;;;12.15;4.35;;;3.90;99.90;;;;;;2077429;28;20109;-78
2023/02/25 03:50:01;;;;;;;13.88;4.85;;;3.80;99.90;;;;;;2085730;28;20108;-76
2023/02/25 03:51:03;;;;;;;10.55;4.10;;;3.90;99.90;;;;;;2081285;28;20017;-77
2023/02/25 03:52:13;;;;;;;13.30;4.18;;;3.80;99.90;;;;;;2077122;28;20563;-76
2023/02/25 03:53:15;;;;;;;10.40;4.00;;;3.80;99.90;;;;;;2082065;28;20028;-76
2023/02/25 03:54:28;;;;;;;12.35;4.10;;;3.80;99.90;;;;;;2077095;28;20029;-78
2023/02/25 03:55:29;;;;;;;10.90;4.00;;;3.80;99.90;;;;;;2077209;28;20037;-77
2023/02/25 03:56:42;;;;;;;11.00;4.50;;;3.80;99.90;;;;;;2078533;28;20029;-76
2023/02/25 03:57:45;;;;;;;14.18;4.40;;;3.80;99.90;;;;;;2090618;28;20471;-76
2023/02/25 03:58:45;;;;;;;12.40;4.28;;;3.80;99.90;;;;;;2101703;28;20682;-78
2023/02/25 03:59:46;;;;;;;12.68;4.45;;;3.80;99.90;;;;;;2082238;28;20037;-79
2023/02/25 04:00:51;;;;;;;10.55;4.63;;;3.80;99.90;;;;;;2086976;28;20031;-74
2023/02/25 04:01:53;;;;;;;10.73;4.13;;;3.80;99.90;;;;;;2094714;28;20332;-74
2023/02/25 04:02:54;;;;;;;11.40;4.03;;;3.80;99.90;;;;;;2087852;28;20376;-74
2023/02/25 04:03:55;;;;;;;13.50;4.18;;;3.80;99.90;;;;;;2093326;28;20037;-77
2023/02/25 04:04:56;;;;;;;11.77;4.40;;;3.70;99.90;;;;;;2097169;28;20368;-76
2023/02/25 04:05:58;;;;;;;12.50;3.80;;;3.70;99.90;;;;;;2097565;28;20478;-76
2023/02/25 04:06:58;;;;;;;10.50;4.30;;;3.70;99.90;;;;;;2085461;28;20029;-74
2023/02/25 04:07:59;;;;;;;15.32;4.25;;;3.70;99.90;;;;;;2079626;28;20037;-75
2023/02/25 04:09:06;;;;;;;11.90;3.92;;;3.70;99.90;;;;;;2075745;28;20017;-75
2023/02/25 04:10:08;;;;;;;12.48;4.45;;;3.60;99.90;;;;;;2079785;28;20238;-76
2023/02/25 04:11:09;;;;;;;11.48;4.43;;;3.60;99.90;;;;;;2078542;28;20050;-75
2023/02/25 04:12:09;;;;;;;12.25;4.30;;;3.60;99.90;;;;;;2078285;28;20036;-76
2023/02/25 04:13:12;;;;;;;12.18;4.25;;;3.60;99.90;;;;;;2072088;28;20127;-76
2023/02/25 04:14:14;;;;;;;13.85;4.57;;;3.60;99.90;;;;;;2070994;28;20544;-76
2023/02/25 04:15:15;;;;;;;10.35;4.32;;;3.60;99.90;;;;;;2069734;28;20075;-75
2023/02/25 04:16:16;;;;;;;9.55;3.97;;;3.60;99.90;;;;;;2077212;28;20053;-76
2023/02/25 04:17:18;;;;;;;14.27;4.32;;;3.60;99.90;;;;;;2078596;28;20097;-74
2023/02/25 04:18:18;;;;;;;14.60;4.22;;;3.50;99.90;;;;;;2077711;28;20041;-74
2023/02/25 04:19:19;;;;;;;12.25;4.20;;;3.50;99.90;;;;;;2079536;28;20029;-74
2023/02/25 04:20:20;;;;;;;9.35;4.00;;;3.50;99.90;;;;;;2094851;28;20491;-76
2023/02/25 04:21:34;;;;;;;15.27;4.32;;;3.50;99.90;;;;;;2082904;28;20025;-74
2023/02/25 04:22:34;;;;;;;14.30;4.50;;;3.50;99.90;;;;;;2072792;28;20523;-73
2023/02/25 04:23:35;;;;;;;11.68;4.22;;;3.50;99.90;;;;;;2078270;28;20028;-75
2023/02/25 04:24:35;;;;;;;11.98;4.25;;;3.50;99.90;;;;;;2081064;28;20071;-75
2023/02/25 04:25:36;;;;;;;8.77;3.67;;;3.60;99.90;;;;;;2074278;28;20031;-73
2023/02/25 04:26:37;;;;;;;13.02;4.10;;;3.50;99.90;;;;;;2068333;28;20030;-72
2023/02/25 04:27:37;;;;;;;9.48;3.83;;;3.50;99.90;;;;;;2077217;28;20033;-72
2023/02/25 04:28:38;;;;;;;11.60;4.32;;;3.50;99.90;;;;;;2077832;28;20079;-72
2023/02/25 04:29:38;;;;;;;12.00;4.47;;;3.50;99.90;;;;;;2077214;28;20043;-71
2023/02/25 04:30:39;;;;;;;11.65;4.30;;;3.40;99.90;;;;;;2076253;28;20041;-71
2023/02/25 04:31:39;;;;;;;9.50;4.18;;;3.40;99.90;;;;;;2069856;28;20041;-72
2023/02/25 04:32:40;;;;;;;10.15;4.25;;;3.30;99.90;;;;;;2078410;28;20032;-72
2023/02/25 04:33:40;;;;;;;11.02;4.20;;;3.30;99.90;;;;;;2080820;28;20078;-71
2023/02/25 04:34:41;;;;;;;10.18;4.40;;;3.20;99.90;;;;;;2076602;28;20029;-72
2023/02/25 04:35:43;;;;;;;9.98;4.18;;;3.20;99.90;;;;;;2069309;28;20045;-72
2023/02/25 04:36:44;;;;;;;9.43;4.30;;;3.10;99.90;;;;;;2077473;28;20048;-73
2023/02/25 04:37:44;;;;;;;9.82;4.15;;;3.20;99.90;;;;;;2076855;28;20036;-73
2023/02/25 04:38:45;;;;;;;8.55;4.10;;;3.10;99.90;;;;;;2080071;28;20486;-73
2023/02/25 04:39:45;;;;;;;7.43;3.92;;;3.10;99.90;;;;;;2077944;28;20033;-71
2023/02/25 04:40:46;;;;;;;8.20;4.00;;;3.10;99.90;;;;;;2081824;28;20021;-72
2023/02/25 04:41:46;;;;;;;7.63;3.70;;;3.00;99.90;;;;;;2094985;28;20275;-72
2023/02/25 04:42:47;;;;;;;7.07;4.15;;;3.10;99.90;;;;;;2080328;28;20021;-74
2023/02/25 04:43:48;;;;;;;7.15;3.72;;;3.10;99.90;;;;;;2078809;28;20506;-72
2023/02/25 04:44:48;;;;;;;7.57;3.40;;;3.10;99.90;;;;;;2075594;28;20045;-72
2023/02/25 04:45:49;;;;;;;8.88;3.33;;;3.00;99.90;;;;;;2077853;28;20096;-72
2023/02/25 04:46:50;;;;;;;6.40;3.42;;;3.00;99.90;;;;;;2092276;28;20581;-72
2023/02/25 04:47:52;;;;;;;5.35;3.33;;;3.00;99.90;;;;;;2084081;28;20048;-72
2023/02/25 04:48:53;;;;;;;6.38;3.40;;;3.10;99.90;;;;;;2082485;28;20053;-72
2023/02/25 04:49:53;;;;;;;6.30;3.28;;;3.00;99.90;;;;;;2092625;28;20539;-72
2023/02/25 04:50:54;;;;;;;5.03;3.03;;;3.00;99.90;;;;;;2075752;28;20021;-72
2023/02/25 04:51:55;;;;;;;5.90;3.22;;;3.00;99.90;;;;;;2079936;28;20024;-72
2023/02/25 04:52:58;;;;;;;4.10;2.80;;;3.00;99.90;;;;;;2075680;28;20052;-72
2023/02/25 04:53:58;;;;;;;5.60;2.80;;;3.00;99.90;;;;;;2078283;28;20029;-73
2023/02/25 04:54:59;;;;;;;4.35;2.90;;;3.00;99.90;;;;;;2077423;28;20096;-73
2023/02/25 04:56:08;;;;;;;4.93;3.08;;;3.00;99.90;;;;;;2076329;28;20358;-73
2023/02/25 04:57:11;;;;;;;4.93;3.00;;;2.90;99.90;;;;;;2075910;28;20165;-73
2023/02/25 04:58:12;;;;;;;5.40;2.83;;;2.90;99.90;;;;;;2078225;28;20524;-73
2023/02/25 04:59:13;;;;;;;4.78;2.70;;;3.00;99.90;;;;;;2081903;28;20334;-73
2023/02/25 05:00:19;;;;;;;5.35;2.85;;;2.90;99.90;;;;;;2080359;28;20430;-73
2023/02/25 05:01:19;;;;;;;4.28;2.80;;;2.90;99.90;;;;;;2080803;28;20034;-74
2023/02/25 05:02:20;;;;;;;4.35;2.83;;;2.90;99.90;;;;;;2078789;28;20491;-73
2023/02/25 05:03:20;;;;;;;3.83;2.75;;;2.90;99.90;;;;;;2078903;28;20480;-72
2023/02/25 05:04:21;;;;;;;5.70;3.20;;;2.90;99.90;;;;;;2080414;28;20191;-72
2023/02/25 05:05:21;;;;;;;5.70;3.47;;;2.90;99.90;;;;;;2077659;28;20081;-73
2023/02/25 05:06:26;;;;;;;5.57;3.00;;;2.80;99.90;;;;;;2082529;28;20017;-73
2023/02/25 05:07:27;;;;;;;5.18;3.25;;;2.80;99.90;;;;;;2077679;28;20117;-72
2023/02/25 05:08:28;;;;;;;5.38;3.50;;;2.80;99.90;;;;;;2077726;28;20098;-73
2023/02/25 05:09:28;;;;;;;5.70;3.38;;;2.80;99.90;;;;;;2077849;28;20025;-72
2023/02/25 05:10:29;;;;;;;6.75;3.72;;;2.80;99.90;;;;;;2097761;28;20082;-73
2023/02/25 05:11:30;;;;;;;5.63;3.65;;;2.80;99.90;;;;;;2093624;28;20056;-72
2023/02/25 05:12:30;;;;;;;7.78;3.53;;;2.70;99.90;;;;;;2080935;28;20033;-74
2023/02/25 05:13:31;;;;;;;7.32;3.30;;;2.80;99.90;;;;;;2079694;28;20126;-73
2023/02/25 05:14:32;;;;;;;4.43;3.38;;;2.70;99.90;;;;;;2073891;28;20029;-73
2023/02/25 05:15:33;;;;;;;4.95;3.70;;;2.80;99.90;;;;;;2088017;28;20096;-73
2023/02/25 05:16:34;;;;;;;6.28;3.90;;;2.70;99.90;;;;;;2086470;28;20073;-73
2023/02/25 05:17:35;;;;;;;4.53;3.38;;;2.70;99.90;;;;;;2076868;28;20110;-73
2023/02/25 05:18:37;;;;;;;6.95;4.00;;;2.80;99.90;;;;;;2078169;28;20132;-74
2023/02/25 05:19:37;;;;;;;6.93;3.38;;;2.80;99.90;;;;;;2078144;28;20025;-74
2023/02/25 05:20:42;;;;;;;4.95;3.58;;;2.70;99.90;;;;;;2081582;28;20126;-73
2023/02/25 05:21:44;;;;;;;5.50;3.50;;;2.70;99.90;;;;;;2078878;28;20057;-73
2023/02/25 05:22:44;;;;;;;5.53;3.60;;;2.70;99.90;;;;;;2088180;28;20480;-74
2023/02/25 05:23:47;;;;;;;6.15;3.88;;;2.70;99.90;;;;;;2086189;28;20128;-73
2023/02/25 05:24:47;;;;;;;6.55;3.80;;;2.60;99.90;;;;;;2078404;28;20037;-74
2023/02/25 05:25:47;;;;;;;5.00;3.72;;;2.70;99.90;;;;;;2080301;28;20025;-74
2023/02/25 05:26:48;;;;;;;6.22;3.83;;;2.70;99.90;;;;;;2077196;28;20398;-74
2023/02/25 05:27:49;;;;;;;5.95;3.70;;;2.60;99.90;;;;;;2077402;28;20508;-73
2023/02/25 05:28:55;;;;;;;5.70;3.88;;;2.60;99.90;;;;;;2077733;28;20033;-73
2023/02/25 05:29:56;;;;;;;6.03;4.10;;;2.60;99.90;;;;;;2077542;28;20443;-71
2023/02/25 05:30:57;;;;;;;6.15;4.00;;;2.60;99.90;;;;;;2077552;28;20029;-72
2023/02/25 05:31:57;;;;;;;4.13;3.67;;;2.50;99.90;;;;;;2079093;28;20053;-72
2023/02/25 05:32:58;;;;;;;4.63;3.83;;;2.60;99.90;;;;;;2069899;28;20112;-72
2023/02/25 05:33:58;;;;;;;6.88;4.30;;;2.60;99.90;;;;;;2078099;28;20308;-71
2023/02/25 05:34:59;;;;;;;6.18;4.15;;;2.60;99.90;;;;;;2076023;28;20451;-72
2023/02/25 05:35:59;;;;;;;5.88;3.90;;;2.60;99.90;;;;;;2079625;28;20036;-72
2023/02/25 05:37:00;;;;;;;5.07;3.70;;;2.50;99.90;;;;;;2074906;28;20655;-72